• Join FlightAware (Why Join?)
  • Login
  • US Flag 
02:33AM EDT


 

Airport Tracker/Info


-or-


 

Live Flight TrackerFlight Track Log ✈ PDT4226 ✈ 14-Oct-2013 ✈ KPHL - KBGM

Flight Track Log - Related Links

Times and Time Zones

All times are in EDT time to prevent confusion due to time zone crossing. See the PDT4226 flight status page for this flight to view local times or setup timezone preferences in your user account.

Time Position Orientation Groundspeed Altitude Reporting Facility
EDT Latitude Longitude Course Direction KTS MPH feet Rate Location/Type
12:23PM 39.8833 -75.2167 311° West 125 144 500  Level Philadelphia TRACON
12:24PM 39.9000 -75.1833 57° Northeast 141 162 1,700 1,320 Climbing Philadelphia TRACON
12:25PM 39.9333 -75.1333 49° Northeast 157 181 3,000 720 Climbing Philadelphia TRACON
12:26PM 40.0608 -75.2985 303° West  Level Estimated
12:26PM 39.9833 -75.1000 27° Northeast 225 259 3,300  Level Philadelphia TRACON
12:27PM 40.1236 -75.3178 North  Level Estimated
12:27PM 40.0167 -75.0500 49° Northeast 161 185 5,500  Level Philadelphia TRACON
12:28PM 40.1865 -75.3372 North  Level Estimated
12:28PM 40.0500 -75.0333 21° North 163 188 6,800  Level Philadelphia TRACON
12:29PM 40.2493 -75.3565 311° West  Level Estimated
12:29PM 40.0833 -75.1000 303° West 173 199 8,500  Level Philadelphia TRACON
12:30PM 40.1000 -75.1500 294° West 195 224 9,100 300 Climbing Philadelphia TRACON
12:31PM 40.1167 -75.2333 285° West 233 268 9,100  Level Philadelphia TRACON
12:32PM 40.1406 -75.3189 290° West 253 291 9,100  Level New York Center
12:33PM 40.1628 -75.3883 293° West 248 285 9,100  Level New York Center
12:34PM 40.1928 -75.4717 295° West 238 274 9,100 300 Level New York Center
12:35PM 40.2189 -75.5469 294° West 232 267 9,800 900 Climbing New York Center
12:36PM 40.2461 -75.5978 305° West 207 238 11,000 960 Climbing New York Center
12:37PM 40.2772 -75.6517 307° West 186 214 11,800 540 Climbing New York Center
12:38PM 40.3119 -75.7167 305° West 192 221 12,100 120 Climbing New York Center
12:39PM 40.3533 -75.7769 312° West 213 245 12,100  Level New York Center
12:40PM 40.3983 -75.8428 312° West 228 262 12,100 540 Level New York Center
12:41PM 40.4492 -75.8711 337° Northwest 224 258 13,200 960 Climbing New York Center
12:42PM 40.5003 -75.8967 339° North 207 238 14,100 420 Climbing New York Center
12:43PM 40.5572 -75.9311 335° Northwest 213 245 14,100  Level New York Center
12:44PM 40.6242 -75.9689 337° Northwest 233 268 14,100  Level New York Center
12:45PM 40.6789 -76.0031 335° Northwest 238 274 14,100  Level New York Center
12:46PM 40.7481 -76.0414 337° Northwest 245 282 14,100  Level New York Center
12:47PM 40.8139 -76.0628 346° North 245 282 14,100  Level New York Center
12:48PM 40.8769 -76.0953 339° North 240 276 14,100  Level New York Center
12:49PM 40.9386 -76.1164 346° North 246 283 14,100  Level New York Center
12:50PM 41.0147 -76.1389 347° North 246 283 14,100  Level New York Center
12:51PM 41.0742 -76.1603 345° North 246 283 14,100  Level New York Center
12:52PM 41.1394 -76.1875 343° North 246 283 14,100  Level New York Center
12:53PM 41.2181 -76.1992 354° North 246 283 14,100  Level New York Center
12:54PM 41.2894 -76.1911 North 253 291 14,100  Level New York Center
12:55PM 41.3600 -76.1942 358° North 253 291 14,100  Level New York Center
12:56PM 41.4247 -76.1911 North 253 291 14,100  Level New York Center
12:57PM 41.4961 -76.1828 North 253 291 14,100 -540 Level New York Center
12:58PM 41.5794 -76.1814 North 259 298 13,100 -1,140 Descending New York Center
12:59PM 41.6564 -76.1792 North 266 306 11,900 -1,200 Descending New York Center
01:00PM 41.7314 -76.1825 358° North 271 312 10,800 -1,200 Descending New York Center
01:01PM 41.7978 -76.1881 356° North 271 312 9,500 -1,380 Descending New York Center
01:02PM 41.8728 -76.1883 360° North 271 312 8,100 -1,500 Descending New York Center
01:03PM 41.9517 -76.1922 358° North 271 312 6,600 -1,500 Descending New York Center
01:04PM 42.0244 -76.1925 360° North 266 306 5,200 -780 Descending New York Center
01:05PM 42.0869 -76.1947 358° North 260 299 5,100 -360 Descending New York Center
01:06PM 42.1472 -76.1969 358° North 237 273 4,500 -900 Descending New York Center
01:07PM 42.2008 -76.2042 354° North 213 245 3,400 -600 Descending New York Center
01:08PM 42.2528 -76.2086 356° North 192 221 3,400  Level New York Center
01:09PM 42.2986 -76.2094 359° North 179 206 3,400  Level New York Center
01:10PM 42.3258 -76.1556 56° Northeast 158 182 3,400  Level New York Center